Mark K — WQZ8816 — position and weather

sailwx.info

Track history (hours):
 
Tides and Currents Weather Stations Pressure Air Temp Water Temp Dewpoint Dewpoint Depression Visibility Wind Speed Wind Dir Waves Ship Positions

Mark K

Owner: G & H Towing Company, GALVESTON, TX. More information available from US FCC via Universal Licensing System and Coast Guard Vessel Documentation Center.

Last reported at 2018-Feb-20 23:31 UTC. Time now 2018-Feb-21 09:19 UTC.
Position N 29°44' W 095°04'.

Length 29 m; draft 6.1 m.

Type: Tug. MMSI: 366921810.

Date/timePositionNaut miles runAvg speedWind from/ knotsBaromVisibWave heightAir tempDewpointWater temp
2018-Feb-20 23:31N 29°44' W 095°04'0 8.3
2018-Feb-20 23:30N 29°44' W 095°03'3 0.3
2018-Feb-20 14:02N 29°45' W 095°07'0 0.1
2018-Feb-20 13:56N 29°45' W 095°07'0 0.0
2018-Feb-20 07:56N 29°45' W 095°07'1 2.5
2018-Feb-20 07:28N 29°45' W 095°06'3 6.1
2018-Feb-20 07:00N 29°44' W 095°03'4 7.6
2018-Feb-20 06:30N 29°42' W 094°59'510.2
2018-Feb-20 06:00N 29°37' W 094°57'510.3
2018-Feb-20 05:30N 29°32' W 094°54'1 0.1
2018-Feb-20 00:00N 29°32' W 094°54'3 5.8
2018-Feb-19 23:31N 29°34' W 094°56'3 5.7
2018-Feb-19 23:01N 29°37' W 094°57'3 6.0
2018-Feb-19 22:30N 29°40' W 094°58'3 5.5
2018-Feb-19 21:57N 29°42' W 095°00'6 0.7
2018-Feb-19 13:42N 29°44' W 095°07'0 0.0
2018-Feb-19 08:25N 29°44' W 095°07'0 0.0
2018-Feb-19 07:55N 29°44' W 095°07'0 0.0
2018-Feb-19 07:22N 29°44' W 095°07'0 0.0
2018-Feb-17 22:06N 29°44' W 095°07'1 8.5
2018-Feb-17 21:59N 29°44' W 095°08'1 0.7
2018-Feb-17 20:49N 29°44' W 095°07'2 2.9
2018-Feb-17 20:17N 29°44' W 095°09'  
2018-Feb-15 07:56N 29°45' W 095°07'0 0.0
2018-Feb-15 07:29N 29°45' W 095°07'1 0.0
2018-Feb-14 15:32N 29°44' W 095°07'1 7.7
2018-Feb-14 15:24N 29°44' W 095°09'  
Track history (hours):
 
Tides and Currents Weather Stations Pressure Air Temp Water Temp Dewpoint Dewpoint Depression Visibility Wind Speed Wind Dir Waves Ship Positions

Mark K

Owner: G & H Towing Company, GALVESTON, TX. More information available from US FCC via Universal Licensing System and Coast Guard Vessel Documentation Center.

Last reported at 2018-Feb-20 23:31 UTC. Time now 2018-Feb-21 09:19 UTC.
Position N 29°44' W 095°04'.

Length 29 m; draft 6.1 m.

Type: Tug. MMSI: 366921810.

Date/timePositionNaut miles runAvg speedWind from/ knotsBaromVisibWave heightAir tempDewpointWater temp
2018-Feb-20 23:31N 29°44' W 095°04'0 8.3
2018-Feb-20 23:30N 29°44' W 095°03'3 0.3
2018-Feb-20 14:02N 29°45' W 095°07'0 0.1
2018-Feb-20 13:56N 29°45' W 095°07'0 0.0
2018-Feb-20 07:56N 29°45' W 095°07'1 2.5
2018-Feb-20 07:28N 29°45' W 095°06'3 6.1
2018-Feb-20 07:00N 29°44' W 095°03'4 7.6
2018-Feb-20 06:30N 29°42' W 094°59'510.2
2018-Feb-20 06:00N 29°37' W 094°57'510.3
2018-Feb-20 05:30N 29°32' W 094°54'1 0.1
2018-Feb-20 00:00N 29°32' W 094°54'3 5.8
2018-Feb-19 23:31N 29°34' W 094°56'3 5.7
2018-Feb-19 23:01N 29°37' W 094°57'3 6.0
2018-Feb-19 22:30N 29°40' W 094°58'3 5.5
2018-Feb-19 21:57N 29°42' W 095°00'6 0.7
2018-Feb-19 13:42N 29°44' W 095°07'0 0.0
2018-Feb-19 08:25N 29°44' W 095°07'0 0.0
2018-Feb-19 07:55N 29°44' W 095°07'0 0.0
2018-Feb-19 07:22N 29°44' W 095°07'0 0.0
2018-Feb-17 22:06N 29°44' W 095°07'1 8.5
2018-Feb-17 21:59N 29°44' W 095°08'1 0.7
2018-Feb-17 20:49N 29°44' W 095°07'2 2.9
2018-Feb-17 20:17N 29°44' W 095°09'  
2018-Feb-15 07:56N 29°45' W 095°07'0 0.0
2018-Feb-15 07:29N 29°45' W 095°07'1 0.0
2018-Feb-14 15:32N 29°44' W 095°07'1 7.7
2018-Feb-14 15:24N 29°44' W 095°09'  

Dump ship's entire track history